sensor_id;sensor_type;location;lat;lon;timestamp;pressure;altitude;pressure_sealevel;temperature;humidity
4590;BME280;2307;48.448;9.216;2023-01-27T00:01:05;95512.91;;;-1.87;100.00
4590;BME280;2307;48.448;9.216;2023-01-27T00:03:32;95512.16;;;-1.79;100.00
4590;BME280;2307;48.448;9.216;2023-01-27T00:05:59;95503.09;;;-1.75;100.00
4590;BME280;2307;48.448;9.216;2023-01-27T00:08:25;95508.75;;;-1.80;100.00
4590;BME280;2307;48.448;9.216;2023-01-27T00:10:55;95519.78;;;-1.78;100.00
4590;BME280;2307;48.448;9.216;2023-01-27T00:13:43;95506.97;;;-1.79;100.00
4590;BME280;2307;48.448;9.216;2023-01-27T00:16:09;95506.31;;;-1.81;100.00
4590;BME280;2307;48.448;9.216;2023-01-27T00:18:35;95507.91;;;-1.88;100.00
4590;BME280;2307;48.448;9.216;2023-01-27T00:21:01;95500.47;;;-1.91;100.00
4590;BME280;2307;48.448;9.216;2023-01-27T00:23:45;95507.97;;;-1.72;100.00
4590;BME280;2307;48.448;9.216;2023-01-27T00:26:37;95502.75;;;-1.80;100.00
4590;BME280;2307;48.448;9.216;2023-01-27T00:29:05;95506.00;;;-1.78;100.00
4590;BME280;2307;48.448;9.216;2023-01-27T00:31:31;95503.59;;;-1.72;100.00
4590;BME280;2307;48.448;9.216;2023-01-27T00:34:16;95502.47;;;-1.69;100.00
4590;BME280;2307;48.448;9.216;2023-01-27T00:36:42;95505.03;;;-1.77;100.00
4590;BME280;2307;48.448;9.216;2023-01-27T00:39:09;95508.97;;;-1.65;100.00
4590;BME280;2307;48.448;9.216;2023-01-27T00:41:35;95504.91;;;-1.68;100.00
4590;BME280;2307;48.448;9.216;2023-01-27T00:44:02;95503.47;;;-1.62;100.00
4590;BME280;2307;48.448;9.216;2023-01-27T00:46:31;95508.84;;;-1.55;100.00
4590;BME280;2307;48.448;9.216;2023-01-27T00:48:58;95505.25;;;-1.54;100.00
4590;BME280;2307;48.448;9.216;2023-01-27T00:51:24;95500.97;;;-1.80;100.00
4590;BME280;2307;48.448;9.216;2023-01-27T00:53:50;95498.06;;;-1.77;100.00
4590;BME280;2307;48.448;9.216;2023-01-27T00:56:17;95500.00;;;-1.79;100.00
4590;BME280;2307;48.448;9.216;2023-01-27T00:58:43;95508.28;;;-1.75;100.00
4590;BME280;2307;48.448;9.216;2023-01-27T01:01:10;95507.47;;;-1.76;100.00
4590;BME280;2307;48.448;9.216;2023-01-27T01:03:38;95508.94;;;-1.73;100.00
4590;BME280;2307;48.448;9.216;2023-01-27T01:06:06;95504.38;;;-1.87;100.00
4590;BME280;2307;48.448;9.216;2023-01-27T01:08:33;95509.41;;;-1.78;100.00
4590;BME280;2307;48.448;9.216;2023-01-27T01:11:00;95505.69;;;-1.75;100.00
4590;BME280;2307;48.448;9.216;2023-01-27T01:13:26;95507.66;;;-1.69;100.00
4590;BME280;2307;48.448;9.216;2023-01-27T01:15:53;95501.53;;;-1.68;100.00
4590;BME280;2307;48.448;9.216;2023-01-27T01:18:20;95511.88;;;-1.60;100.00
4590;BME280;2307;48.448;9.216;2023-01-27T01:20:47;95511.25;;;-1.54;100.00
4590;BME280;2307;48.448;9.216;2023-01-27T01:23:14;95519.34;;;-1.49;100.00
4590;BME280;2307;48.448;9.216;2023-01-27T01:25:41;95514.59;;;-1.70;100.00
4590;BME280;2307;48.448;9.216;2023-01-27T01:28:07;95520.75;;;-1.71;100.00
4590;BME280;2307;48.448;9.216;2023-01-27T01:30:34;95520.63;;;-1.61;100.00
4590;BME280;2307;48.448;9.216;2023-01-27T01:33:01;95511.50;;;-1.73;100.00
4590;BME280;2307;48.448;9.216;2023-01-27T01:35:28;95512.53;;;-1.66;100.00
4590;BME280;2307;48.448;9.216;2023-01-27T01:37:56;95514.31;;;-1.58;100.00
4590;BME280;2307;48.448;9.216;2023-01-27T01:40:22;95503.25;;;-1.77;100.00
4590;BME280;2307;48.448;9.216;2023-01-27T01:42:55;95515.31;;;-1.93;100.00
4590;BME280;2307;48.448;9.216;2023-01-27T01:45:36;95514.59;;;-1.78;100.00
4590;BME280;2307;48.448;9.216;2023-01-27T01:48:06;95511.50;;;-1.73;100.00
4590;BME280;2307;48.448;9.216;2023-01-27T01:50:33;95513.72;;;-1.94;100.00
4590;BME280;2307;48.448;9.216;2023-01-27T01:53:02;95514.97;;;-1.98;100.00
4590;BME280;2307;48.448;9.216;2023-01-27T01:55:29;95503.19;;;-1.93;100.00
4590;BME280;2307;48.448;9.216;2023-01-27T01:57:57;95504.50;;;-1.89;100.00
4590;BME280;2307;48.448;9.216;2023-01-27T02:00:24;95503.69;;;-1.89;100.00
4590;BME280;2307;48.448;9.216;2023-01-27T02:02:50;95502.28;;;-1.76;100.00
4590;BME280;2307;48.448;9.216;2023-01-27T02:05:20;95504.00;;;-1.92;100.00
4590;BME280;2307;48.448;9.216;2023-01-27T02:07:49;95498.81;;;-2.00;100.00
4590;BME280;2307;48.448;9.216;2023-01-27T02:10:20;95497.38;;;-1.95;100.00
4590;BME280;2307;48.448;9.216;2023-01-27T02:12:46;95491.22;;;-1.94;100.00
4590;BME280;2307;48.448;9.216;2023-01-27T02:15:13;95492.38;;;-1.88;100.00
4590;BME280;2307;48.448;9.216;2023-01-27T02:17:39;95491.13;;;-1.76;100.00
4590;BME280;2307;48.448;9.216;2023-01-27T02:20:07;95493.38;;;-1.81;100.00
4590;BME280;2307;48.448;9.216;2023-01-27T02:22:38;95489.81;;;-1.80;100.00
4590;BME280;2307;48.448;9.216;2023-01-27T02:25:08;95498.25;;;-1.78;100.00
4590;BME280;2307;48.448;9.216;2023-01-27T02:27:38;95492.06;;;-1.85;100.00
4590;BME280;2307;48.448;9.216;2023-01-27T02:30:05;95492.38;;;-1.88;100.00
4590;BME280;2307;48.448;9.216;2023-01-27T02:32:31;95490.13;;;-1.83;100.00
4590;BME280;2307;48.448;9.216;2023-01-27T02:34:58;95483.53;;;-1.78;100.00
4590;BME280;2307;48.448;9.216;2023-01-27T02:37:25;95478.22;;;-1.68;100.00
4590;BME280;2307;48.448;9.216;2023-01-27T02:39:52;95478.22;;;-1.60;100.00
4590;BME280;2307;48.448;9.216;2023-01-27T02:42:20;95482.53;;;-1.85;100.00
4590;BME280;2307;48.448;9.216;2023-01-27T02:44:48;95478.50;;;-1.79;100.00
4590;BME280;2307;48.448;9.216;2023-01-27T02:47:14;95484.94;;;-1.83;100.00
4590;BME280;2307;48.448;9.216;2023-01-27T02:49:41;95486.69;;;-1.92;100.00
4590;BME280;2307;48.448;9.216;2023-01-27T02:52:07;95484.31;;;-1.85;100.00
4590;BME280;2307;48.448;9.216;2023-01-27T02:54:33;95487.19;;;-1.88;100.00
4590;BME280;2307;48.448;9.216;2023-01-27T02:57:00;95480.25;;;-1.88;100.00
4590;BME280;2307;48.448;9.216;2023-01-27T02:59:26;95480.44;;;-1.81;100.00
4590;BME280;2307;48.448;9.216;2023-01-27T03:01:54;95487.25;;;-1.72;100.00
4590;BME280;2307;48.448;9.216;2023-01-27T03:04:20;95473.38;;;-1.55;100.00
4590;BME280;2307;48.448;9.216;2023-01-27T03:06:46;95475.13;;;-1.64;100.00
4590;BME280;2307;48.448;9.216;2023-01-27T03:09:13;95477.41;;;-1.69;100.00
4590;BME280;2307;48.448;9.216;2023-01-27T03:11:39;95483.41;;;-1.68;100.00
4590;BME280;2307;48.448;9.216;2023-01-27T03:14:23;95472.72;;;-1.65;100.00
4590;BME280;2307;48.448;9.216;2023-01-27T03:17:09;95487.88;;;-1.78;100.00
4590;BME280;2307;48.448;9.216;2023-01-27T03:19:53;95476.91;;;-1.72;100.00
4590;BME280;2307;48.448;9.216;2023-01-27T03:22:19;95481.13;;;-1.63;100.00
4590;BME280;2307;48.448;9.216;2023-01-27T03:24:45;95478.06;;;-1.58;100.00
4590;BME280;2307;48.448;9.216;2023-01-27T03:27:12;95474.50;;;-1.57;100.00
4590;BME280;2307;48.448;9.216;2023-01-27T03:29:38;95478.41;;;-1.53;100.00
4590;BME280;2307;48.448;9.216;2023-01-27T03:32:24;95476.94;;;-1.56;100.00
4590;BME280;2307;48.448;9.216;2023-01-27T03:34:51;95479.19;;;-1.69;100.00
4590;BME280;2307;48.448;9.216;2023-01-27T03:37:17;95472.72;;;-1.65;100.00
4590;BME280;2307;48.448;9.216;2023-01-27T03:40:01;95464.97;;;-1.57;100.00
4590;BME280;2307;48.448;9.216;2023-01-27T03:42:45;95465.94;;;-1.50;100.00
4590;BME280;2307;48.448;9.216;2023-01-27T03:45:29;95473.31;;;-1.71;100.00
4590;BME280;2307;48.448;9.216;2023-01-27T03:48:14;95478.94;;;-1.92;100.00
4590;BME280;2307;48.448;9.216;2023-01-27T03:50:42;95481.66;;;-1.93;100.00
4590;BME280;2307;48.448;9.216;2023-01-27T03:53:08;95484.94;;;-1.91;100.00
4590;BME280;2307;48.448;9.216;2023-01-27T03:55:35;95483.34;;;-1.84;100.00
4590;BME280;2307;48.448;9.216;2023-01-27T03:58:02;95488.84;;;-1.87;100.00
4590;BME280;2307;48.448;9.216;2023-01-27T04:00:38;95499.19;;;-1.87;100.00
4590;BME280;2307;48.448;9.216;2023-01-27T04:03:05;95498.06;;;-1.85;100.00
4590;BME280;2307;48.448;9.216;2023-01-27T04:05:50;95489.00;;;-1.81;100.00
4590;BME280;2307;48.448;9.216;2023-01-27T04:08:34;95489.44;;;-1.93;100.00
4590;BME280;2307;48.448;9.216;2023-01-27T04:11:01;95488.16;;;-1.97;100.00
4590;BME280;2307;48.448;9.216;2023-01-27T04:13:45;95489.22;;;-2.08;100.00
4590;BME280;2307;48.448;9.216;2023-01-27T04:16:11;95488.97;;;-1.97;100.00
4590;BME280;2307;48.448;9.216;2023-01-27T04:18:38;95484.53;;;-2.12;100.00
4590;BME280;2307;48.448;9.216;2023-01-27T04:21:06;95484.56;;;-1.96;100.00
4590;BME280;2307;48.448;9.216;2023-01-27T04:23:32;95478.75;;;-1.98;100.00
4590;BME280;2307;48.448;9.216;2023-01-27T04:25:59;95474.88;;;-1.94;100.00
4590;BME280;2307;48.448;9.216;2023-01-27T04:28:25;95472.31;;;-1.94;100.00
4590;BME280;2307;48.448;9.216;2023-01-27T04:30:52;95483.41;;;-2.02;100.00
4590;BME280;2307;48.448;9.216;2023-01-27T04:33:18;95498.25;;;-2.12;100.00
4590;BME280;2307;48.448;9.216;2023-01-27T04:35:45;95505.34;;;-2.22;100.00
4590;BME280;2307;48.448;9.216;2023-01-27T04:38:12;95493.56;;;-2.17;100.00
4590;BME280;2307;48.448;9.216;2023-01-27T04:40:39;95498.75;;;-2.08;100.00
4590;BME280;2307;48.448;9.216;2023-01-27T04:43:06;95493.06;;;-2.12;100.00
4590;BME280;2307;48.448;9.216;2023-01-27T04:45:33;95504.09;;;-2.10;100.00
4590;BME280;2307;48.448;9.216;2023-01-27T04:47:59;95487.13;;;-2.04;100.00
4590;BME280;2307;48.448;9.216;2023-01-27T04:50:25;95484.44;;;-1.95;100.00
4590;BME280;2307;48.448;9.216;2023-01-27T04:52:52;95488.47;;;-1.92;100.00
4590;BME280;2307;48.448;9.216;2023-01-27T04:55:20;95495.53;;;-2.02;100.00
4590;BME280;2307;48.448;9.216;2023-01-27T04:57:46;95488.25;;;-2.07;100.00
4590;BME280;2307;48.448;9.216;2023-01-27T05:00:13;95475.53;;;-1.92;100.00
4590;BME280;2307;48.448;9.216;2023-01-27T05:02:39;95477.47;;;-1.94;100.00
4590;BME280;2307;48.448;9.216;2023-01-27T05:05:06;95482.97;;;-1.97;100.00
4590;BME280;2307;48.448;9.216;2023-01-27T05:07:32;95489.69;;;-2.12;100.00
4590;BME280;2307;48.448;9.216;2023-01-27T05:09:58;95492.56;;;-2.16;100.00
4590;BME280;2307;48.448;9.216;2023-01-27T05:12:26;95494.56;;;-2.09;100.00
4590;BME280;2307;48.448;9.216;2023-01-27T05:14:52;95495.78;;;-2.22;100.00
4590;BME280;2307;48.448;9.216;2023-01-27T05:17:19;95515.47;;;-2.29;100.00
4590;BME280;2307;48.448;9.216;2023-01-27T05:19:45;95510.91;;;-2.35;100.00
4590;BME280;2307;48.448;9.216;2023-01-27T05:22:12;95514.50;;;-2.28;100.00
4590;BME280;2307;48.448;9.216;2023-01-27T05:24:38;95517.44;;;-2.23;100.00
4590;BME280;2307;48.448;9.216;2023-01-27T05:27:05;95508.63;;;-2.38;100.00
4590;BME280;2307;48.448;9.216;2023-01-27T05:29:32;95509.81;;;-2.32;100.00
4590;BME280;2307;48.448;9.216;2023-01-27T05:31:59;95507.34;;;-2.34;100.00
4590;BME280;2307;48.448;9.216;2023-01-27T05:34:25;95510.44;;;-2.30;100.00
4590;BME280;2307;48.448;9.216;2023-01-27T05:36:51;95524.28;;;-2.13;100.00
4590;BME280;2307;48.448;9.216;2023-01-27T05:39:18;95522.22;;;-2.10;100.00
4590;BME280;2307;48.448;9.216;2023-01-27T05:41:44;95520.38;;;-2.18;100.00
4590;BME280;2307;48.448;9.216;2023-01-27T05:44:11;95519.56;;;-2.18;100.00
4590;BME280;2307;48.448;9.216;2023-01-27T05:46:39;95524.72;;;-2.18;100.00
4590;BME280;2307;48.448;9.216;2023-01-27T05:49:06;95525.91;;;-2.12;100.00
4590;BME280;2307;48.448;9.216;2023-01-27T05:51:33;95527.63;;;-2.21;100.00
4590;BME280;2307;48.448;9.216;2023-01-27T05:53:59;95530.41;;;-2.15;100.00
4590;BME280;2307;48.448;9.216;2023-01-27T05:56:26;95530.47;;;-2.06;100.00
4590;BME280;2307;48.448;9.216;2023-01-27T05:58:53;95530.41;;;-2.15;100.00
4590;BME280;2307;48.448;9.216;2023-01-27T06:01:20;95531.38;;;-2.16;100.00
4590;BME280;2307;48.448;9.216;2023-01-27T06:03:48;95527.13;;;-2.25;100.00
4590;BME280;2307;48.448;9.216;2023-01-27T06:06:15;95527.81;;;-2.15;100.00
4590;BME280;2307;48.448;9.216;2023-01-27T06:08:42;95530.41;;;-2.15;100.00
4590;BME280;2307;48.448;9.216;2023-01-27T06:11:09;95526.63;;;-2.28;100.00
4590;BME280;2307;48.448;9.216;2023-01-27T06:13:36;95534.19;;;-2.35;100.00
4590;BME280;2307;48.448;9.216;2023-01-27T06:16:03;95538.78;;;-2.21;100.00
4590;BME280;2307;48.448;9.216;2023-01-27T06:18:30;95539.91;;;-2.23;100.00
4590;BME280;2307;48.448;9.216;2023-01-27T06:20:57;95537.84;;;-2.20;100.00
4590;BME280;2307;48.448;9.216;2023-01-27T06:23:24;95539.63;;;-2.12;100.00
4590;BME280;2307;48.448;9.216;2023-01-27T06:25:52;95538.28;;;-2.24;100.00
4590;BME280;2307;48.448;9.216;2023-01-27T06:28:18;95543.34;;;-2.15;100.00
4590;BME280;2307;48.448;9.216;2023-01-27T06:30:45;95547.56;;;-2.13;100.00
4590;BME280;2307;48.448;9.216;2023-01-27T06:33:12;95536.53;;;-2.16;100.00
4590;BME280;2307;48.448;9.216;2023-01-27T06:35:39;95544.28;;;-2.24;100.00
4590;BME280;2307;48.448;9.216;2023-01-27T06:38:07;95543.66;;;-2.18;100.00
4590;BME280;2307;48.448;9.216;2023-01-27T06:40:34;95542.94;;;-2.28;100.00
4590;BME280;2307;48.448;9.216;2023-01-27T06:43:00;95546.72;;;-2.22;100.00
4590;BME280;2307;48.448;9.216;2023-01-27T06:45:27;95545.94;;;-2.15;100.00
4590;BME280;2307;48.448;9.216;2023-01-27T06:47:54;95546.72;;;-2.22;100.00
4590;BME280;2307;48.448;9.216;2023-01-27T06:50:21;95552.56;;;-2.12;100.00
4590;BME280;2307;48.448;9.216;2023-01-27T06:52:47;95563.09;;;-2.13;100.00
4590;BME280;2307;48.448;9.216;2023-01-27T06:55:15;95565.09;;;-2.25;100.00
4590;BME280;2307;48.448;9.216;2023-01-27T06:57:43;95565.28;;;-2.27;100.00
4590;BME280;2307;48.448;9.216;2023-01-27T07:00:12;95569.41;;;-2.34;100.00
4590;BME280;2307;48.448;9.216;2023-01-27T07:02:38;95580.47;;;-2.24;100.00
4590;BME280;2307;48.448;9.216;2023-01-27T07:05:05;95578.44;;;-2.12;100.00
4590;BME280;2307;48.448;9.216;2023-01-27T07:07:31;95581.50;;;-2.17;100.00
4590;BME280;2307;48.448;9.216;2023-01-27T07:09:58;95584.41;;;-2.20;100.00
4590;BME280;2307;48.448;9.216;2023-01-27T07:12:25;95583.94;;;-2.15;100.00
4590;BME280;2307;48.448;9.216;2023-01-27T07:14:52;95586.00;;;-2.19;100.00
4590;BME280;2307;48.448;9.216;2023-01-27T07:17:18;95594.38;;;-2.25;100.00
4590;BME280;2307;48.448;9.216;2023-01-27T07:19:45;95600.34;;;-2.06;100.00
4590;BME280;2307;48.448;9.216;2023-01-27T07:22:11;95593.53;;;-2.07;100.00
4590;BME280;2307;48.448;9.216;2023-01-27T07:24:37;95600.88;;;-2.21;100.00
4590;BME280;2307;48.448;9.216;2023-01-27T07:27:04;95601.59;;;-2.10;100.00
4590;BME280;2307;48.448;9.216;2023-01-27T07:29:31;95608.56;;;-2.03;100.00
4590;BME280;2307;48.448;9.216;2023-01-27T07:31:58;95596.53;;;-1.94;100.00
4590;BME280;2307;48.448;9.216;2023-01-27T07:34:24;95596.53;;;-1.94;100.00
4590;BME280;2307;48.448;9.216;2023-01-27T07:36:51;95597.94;;;-2.00;100.00
4590;BME280;2307;48.448;9.216;2023-01-27T07:39:17;95606.34;;;-2.24;100.00
4590;BME280;2307;48.448;9.216;2023-01-27T07:41:43;95611.53;;;-2.24;100.00
4590;BME280;2307;48.448;9.216;2023-01-27T07:44:10;95612.25;;;-2.13;100.00
4590;BME280;2307;48.448;9.216;2023-01-27T07:46:38;95617.34;;;-2.22;100.00
4590;BME280;2307;48.448;9.216;2023-01-27T07:49:04;95624.50;;;-2.16;100.00
4590;BME280;2307;48.448;9.216;2023-01-27T07:51:30;95617.03;;;-2.19;100.00
4590;BME280;2307;48.448;9.216;2023-01-27T07:53:57;95615.88;;;-2.24;100.00
4590;BME280;2307;48.448;9.216;2023-01-27T07:56:23;95617.94;;;-2.28;100.00
4590;BME280;2307;48.448;9.216;2023-01-27T07:58:52;95633.78;;;-2.31;100.00
4590;BME280;2307;48.448;9.216;2023-01-27T08:01:18;95630.75;;;-2.26;100.00
4590;BME280;2307;48.448;9.216;2023-01-27T08:03:49;95629.63;;;-2.24;100.00
4590;BME280;2307;48.448;9.216;2023-01-27T08:06:16;95630.97;;;-2.20;100.00
4590;BME280;2307;48.448;9.216;2023-01-27T08:08:42;95631.41;;;-2.24;100.00
4590;BME280;2307;48.448;9.216;2023-01-27T08:11:09;95631.22;;;-2.05;100.00
4590;BME280;2307;48.448;9.216;2023-01-27T08:13:37;95633.16;;;-2.07;100.00
4590;BME280;2307;48.448;9.216;2023-01-27T08:16:04;95634.44;;;-2.03;100.00
4590;BME280;2307;48.448;9.216;2023-01-27T08:18:31;95634.31;;;-2.01;100.00
4590;BME280;2307;48.448;9.216;2023-01-27T08:21:00;95624.00;;;-1.93;100.00
4590;BME280;2307;48.448;9.216;2023-01-27T08:23:26;95630.91;;;-2.02;100.00
4590;BME280;2307;48.448;9.216;2023-01-27T08:25:54;95627.97;;;-2.07;100.00
4590;BME280;2307;48.448;9.216;2023-01-27T08:28:20;95627.59;;;-2.12;100.00
4590;BME280;2307;48.448;9.216;2023-01-27T08:30:47;95628.19;;;-2.00;100.00
4590;BME280;2307;48.448;9.216;2023-01-27T08:33:15;95634.91;;;-2.07;100.00
4590;BME280;2307;48.448;9.216;2023-01-27T08:35:42;95638.41;;;-2.17;100.00
4590;BME280;2307;48.448;9.216;2023-01-27T08:38:10;95638.78;;;-2.11;100.00
4590;BME280;2307;48.448;9.216;2023-01-27T08:40:37;95643.59;;;-2.17;100.00
4590;BME280;2307;48.448;9.216;2023-01-27T08:43:03;95638.84;;;-2.21;100.00
4590;BME280;2307;48.448;9.216;2023-01-27T08:45:30;95651.28;;;-2.25;100.00
4590;BME280;2307;48.448;9.216;2023-01-27T08:47:56;95649.28;;;-2.31;100.00
4590;BME280;2307;48.448;9.216;2023-01-27T08:50:23;95653.16;;;-2.35;100.00
4590;BME280;2307;48.448;9.216;2023-01-27T08:52:49;95648.44;;;-2.39;100.00
4590;BME280;2307;48.448;9.216;2023-01-27T08:55:17;95654.84;;;-2.43;100.00
4590;BME280;2307;48.448;9.216;2023-01-27T08:57:43;95653.72;;;-2.41;100.00
4590;BME280;2307;48.448;9.216;2023-01-27T09:00:10;95664.53;;;-2.45;100.00
4590;BME280;2307;48.448;9.216;2023-01-27T09:02:37;95663.13;;;-2.40;100.00
4590;BME280;2307;48.448;9.216;2023-01-27T09:05:03;95660.41;;;-2.38;100.00
4590;BME280;2307;48.448;9.216;2023-01-27T09:07:31;95654.84;;;-2.26;100.00
4590;BME280;2307;48.448;9.216;2023-01-27T09:09:58;95663.47;;;-2.17;100.00
4590;BME280;2307;48.448;9.216;2023-01-27T09:12:26;95659.63;;;-2.13;100.00
4590;BME280;2307;48.448;9.216;2023-01-27T09:14:52;95662.25;;;-2.05;100.00
4590;BME280;2307;48.448;9.216;2023-01-27T09:17:18;95655.63;;;-2.07;100.00
4590;BME280;2307;48.448;9.216;2023-01-27T09:19:45;95651.91;;;-2.05;100.00
4590;BME280;2307;48.448;9.216;2023-01-27T09:22:11;95654.81;;;-2.08;100.00
4590;BME280;2307;48.448;9.216;2023-01-27T09:24:38;95648.06;;;-2.01;100.00
4590;BME280;2307;48.448;9.216;2023-01-27T09:27:04;95655.13;;;-1.85;100.00
4590;BME280;2307;48.448;9.216;2023-01-27T09:29:32;95655.63;;;-1.82;100.00
4590;BME280;2307;48.448;9.216;2023-01-27T09:31:58;95639.59;;;-1.85;100.00
4590;BME280;2307;48.448;9.216;2023-01-27T09:34:25;95636.88;;;-2.09;100.00
4590;BME280;2307;48.448;9.216;2023-01-27T09:36:52;95640.25;;;-2.09;100.00
4590;BME280;2307;48.448;9.216;2023-01-27T09:39:19;95639.34;;;-2.00;100.00
4590;BME280;2307;48.448;9.216;2023-01-27T09:42:03;95634.28;;;-2.09;100.00
4590;BME280;2307;48.448;9.216;2023-01-27T09:44:39;95649.06;;;-2.20;100.00
4590;BME280;2307;48.448;9.216;2023-01-27T09:47:13;95651.91;;;-2.05;100.00
4590;BME280;2307;48.448;9.216;2023-01-27T09:49:47;95653.06;;;-1.99;100.00
4590;BME280;2307;48.448;9.216;2023-01-27T09:52:27;95652.97;;;-1.90;100.00
4590;BME280;2307;48.448;9.216;2023-01-27T09:54:59;95648.69;;;-2.07;100.00
4590;BME280;2307;48.448;9.216;2023-01-27T09:57:31;95648.22;;;-2.02;100.00
4590;BME280;2307;48.448;9.216;2023-01-27T10:00:08;95647.84;;;-2.07;100.00
4590;BME280;2307;48.448;9.216;2023-01-27T10:02:45;95660.31;;;-2.03;100.00
4590;BME280;2307;48.448;9.216;2023-01-27T10:08:11;95663.19;;;-1.88;100.00
4590;BME280;2307;48.448;9.216;2023-01-27T10:10:44;95664.91;;;-1.71;100.00
4590;BME280;2307;48.448;9.216;2023-01-27T10:13:15;95668.63;;;-1.74;100.00
4590;BME280;2307;48.448;9.216;2023-01-27T10:15:56;95666.81;;;-1.81;100.00
4590;BME280;2307;48.448;9.216;2023-01-27T10:18:30;95672.66;;;-1.71;100.00
4590;BME280;2307;48.448;9.216;2023-01-27T10:21:05;95680.75;;;-1.74;100.00
4590;BME280;2307;48.448;9.216;2023-01-27T10:23:36;95688.69;;;-1.76;100.00
4590;BME280;2307;48.448;9.216;2023-01-27T10:26:06;95690.53;;;-1.68;100.00
4590;BME280;2307;48.448;9.216;2023-01-27T10:28:34;95681.72;;;-1.49;100.00
4590;BME280;2307;48.448;9.216;2023-01-27T10:31:07;95685.66;;;-1.37;100.00
4590;BME280;2307;48.448;9.216;2023-01-27T10:33:40;95679.78;;;-1.47;100.00
4590;BME280;2307;48.448;9.216;2023-01-27T10:36:09;95674.72;;;-1.57;100.00
4590;BME280;2307;48.448;9.216;2023-01-27T10:38:41;95678.53;;;-1.69;100.00
4590;BME280;2307;48.448;9.216;2023-01-27T10:41:14;95672.22;;;-1.67;100.00
4590;BME280;2307;48.448;9.216;2023-01-27T10:43:46;95676.44;;;-1.66;100.00
4590;BME280;2307;48.448;9.216;2023-01-27T10:46:20;95676.88;;;-1.70;100.00
4590;BME280;2307;48.448;9.216;2023-01-27T10:48:48;95673.03;;;-1.66;100.00
4590;BME280;2307;48.448;9.216;2023-01-27T10:51:17;95678.22;;;-1.66;100.00
4590;BME280;2307;48.448;9.216;2023-01-27T10:53:50;95677.09;;;-1.64;100.00
4590;BME280;2307;48.448;9.216;2023-01-27T10:56:21;95675.03;;;-1.52;100.00
4590;BME280;2307;48.448;9.216;2023-01-27T10:58:53;95674.38;;;-1.62;100.00
4590;BME280;2307;48.448;9.216;2023-01-27T11:01:26;95692.09;;;-1.75;100.00
4590;BME280;2307;48.448;9.216;2023-01-27T11:03:55;95673.28;;;-1.77;100.00
4590;BME280;2307;48.448;9.216;2023-01-27T11:06:23;95682.47;;;-1.83;100.00
4590;BME280;2307;48.448;9.216;2023-01-27T11:08:52;95680.91;;;-1.76;100.00
4590;BME280;2307;48.448;9.216;2023-01-27T11:11:21;95680.16;;;-1.68;100.00
4590;BME280;2307;48.448;9.216;2023-01-27T11:14:09;95682.44;;;-1.65;100.00
4590;BME280;2307;48.448;9.216;2023-01-27T11:16:39;95671.19;;;-1.48;100.00
4590;BME280;2307;48.448;9.216;2023-01-27T11:19:10;95670.88;;;-1.45;100.00
4590;BME280;2307;48.448;9.216;2023-01-27T11:21:39;95679.88;;;-1.57;100.00
4590;BME280;2307;48.448;9.216;2023-01-27T11:24:10;95673.28;;;-1.51;100.00
4590;BME280;2307;48.448;9.216;2023-01-27T11:26:40;95682.78;;;-1.60;100.00
4590;BME280;2307;48.448;9.216;2023-01-27T11:31:53;95680.75;;;-1.74;100.00
4590;BME280;2307;48.448;9.216;2023-01-27T11:34:23;95671.72;;;-1.70;100.00
4590;BME280;2307;48.448;9.216;2023-01-27T11:36:52;95667.75;;;-1.56;100.00
4590;BME280;2307;48.448;9.216;2023-01-27T11:39:18;95661.72;;;-1.65;100.00
4590;BME280;2307;48.448;9.216;2023-01-27T11:41:46;95671.19;;;-1.48;100.00
4590;BME280;2307;48.448;9.216;2023-01-27T11:44:16;95660.22;;;-1.42;100.00
4590;BME280;2307;48.448;9.216;2023-01-27T11:46:44;95654.78;;;-1.31;100.00
4590;BME280;2307;48.448;9.216;2023-01-27T11:49:13;95649.59;;;-1.23;100.00
4590;BME280;2307;48.448;9.216;2023-01-27T11:51:43;95635.09;;;-1.08;100.00
4590;BME280;2307;48.448;9.216;2023-01-27T11:54:11;95635.13;;;-0.99;100.00
4590;BME280;2307;48.448;9.216;2023-01-27T11:56:39;95632.53;;;-0.99;100.00
4590;BME280;2307;48.448;9.216;2023-01-27T11:59:07;95638.34;;;-0.97;100.00
4590;BME280;2307;48.448;9.216;2023-01-27T12:01:38;95632.50;;;-1.08;100.00
4590;BME280;2307;48.448;9.216;2023-01-27T12:04:13;95648.97;;;-1.17;100.00
4590;BME280;2307;48.448;9.216;2023-01-27T12:06:43;95634.75;;;-1.13;100.00
4590;BME280;2307;48.448;9.216;2023-01-27T12:09:28;95625.56;;;-0.99;100.00
4590;BME280;2307;48.448;9.216;2023-01-27T12:12:06;95643.53;;;-1.05;100.00
4590;BME280;2307;48.448;9.216;2023-01-27T12:14:34;95645.06;;;-1.29;100.00
4590;BME280;2307;48.448;9.216;2023-01-27T12:17:00;95644.44;;;-1.23;100.00
4590;BME280;2307;48.448;9.216;2023-01-27T12:19:30;95643.16;;;-1.11;100.00
4590;BME280;2307;48.448;9.216;2023-01-27T12:22:00;95649.47;;;-1.13;100.00
4590;BME280;2307;48.448;9.216;2023-01-27T12:24:28;95644.47;;;-1.15;100.00
4590;BME280;2307;48.448;9.216;2023-01-27T12:26:56;95643.16;;;-1.19;100.00
4590;BME280;2307;48.448;9.216;2023-01-27T12:29:25;95637.34;;;-1.13;100.00
4590;BME280;2307;48.448;9.216;2023-01-27T12:31:53;95630.84;;;-1.17;100.00
4590;BME280;2307;48.448;9.216;2023-01-27T12:34:22;95625.72;;;-1.00;100.00
4590;BME280;2307;48.448;9.216;2023-01-27T12:36:51;95630.13;;;-0.93;100.00
4590;BME280;2307;48.448;9.216;2023-01-27T12:42:02;95629.06;;;-1.16;100.00
4590;BME280;2307;48.448;9.216;2023-01-27T12:44:39;95631.69;;;-1.08;100.00
4590;BME280;2307;48.448;9.216;2023-01-27T12:47:14;95625.06;;;-1.02;100.00
4590;BME280;2307;48.448;9.216;2023-01-27T12:49:44;95631.84;;;-1.01;100.00
4590;BME280;2307;48.448;9.216;2023-01-27T12:52:15;95632.22;;;-0.88;100.00
4590;BME280;2307;48.448;9.216;2023-01-27T12:54:43;95633.66;;;-1.02;100.00
4590;BME280;2307;48.448;9.216;2023-01-27T12:57:10;95630.63;;;-0.89;100.00
4590;BME280;2307;48.448;9.216;2023-01-27T12:59:41;95624.44;;;-0.96;100.00
4590;BME280;2307;48.448;9.216;2023-01-27T13:02:14;95621.06;;;-0.81;100.00
4590;BME280;2307;48.448;9.216;2023-01-27T13:04:42;95620.25;;;-0.81;100.00
4590;BME280;2307;48.448;9.216;2023-01-27T13:07:11;95614.38;;;-0.91;100.00
4590;BME280;2307;48.448;9.216;2023-01-27T13:09:44;95611.66;;;-0.82;100.00
4590;BME280;2307;48.448;9.216;2023-01-27T13:12:14;95611.38;;;-0.14;100.00
4590;BME280;2307;48.448;9.216;2023-01-27T13:14:42;95611.09;;;0.36;100.00
4590;BME280;2307;48.448;9.216;2023-01-27T13:19:50;95609.91;;;-0.41;100.00
4590;BME280;2307;48.448;9.216;2023-01-27T13:22:19;95618.66;;;-0.34;100.00
4590;BME280;2307;48.448;9.216;2023-01-27T13:24:49;95628.69;;;-0.63;100.00
4590;BME280;2307;48.448;9.216;2023-01-27T13:27:18;95620.13;;;-0.64;100.00
4590;BME280;2307;48.448;9.216;2023-01-27T13:29:47;95624.16;;;-0.77;100.00